sensor_id;sensor_type;location;lat;lon;timestamp;temperature;humidity
5689;DHT22;2869;50.432;8.680;2023-04-01T00:00:35;9.20;99.90
5689;DHT22;2869;50.432;8.680;2023-04-01T00:03:02;9.20;99.90
5689;DHT22;2869;50.432;8.680;2023-04-01T00:05:28;9.20;99.90
5689;DHT22;2869;50.432;8.680;2023-04-01T00:07:56;9.20;99.90
5689;DHT22;2869;50.432;8.680;2023-04-01T00:10:23;9.20;99.90
5689;DHT22;2869;50.432;8.680;2023-04-01T00:12:50;9.20;99.90
5689;DHT22;2869;50.432;8.680;2023-04-01T00:15:16;9.20;99.90
5689;DHT22;2869;50.432;8.680;2023-04-01T00:17:43;9.20;99.90
5689;DHT22;2869;50.432;8.680;2023-04-01T00:20:11;9.20;99.90
5689;DHT22;2869;50.432;8.680;2023-04-01T00:22:37;9.20;99.90
5689;DHT22;2869;50.432;8.680;2023-04-01T00:25:06;9.20;99.90
5689;DHT22;2869;50.432;8.680;2023-04-01T00:27:33;9.20;99.90
5689;DHT22;2869;50.432;8.680;2023-04-01T00:30:00;9.20;99.90
5689;DHT22;2869;50.432;8.680;2023-04-01T00:32:26;9.30;99.90
5689;DHT22;2869;50.432;8.680;2023-04-01T00:34:53;9.20;99.90
5689;DHT22;2869;50.432;8.680;2023-04-01T00:37:20;9.20;99.90
5689;DHT22;2869;50.432;8.680;2023-04-01T00:39:48;9.20;99.90
5689;DHT22;2869;50.432;8.680;2023-04-01T00:42:16;9.20;99.90
5689;DHT22;2869;50.432;8.680;2023-04-01T00:44:47;9.20;99.90
5689;DHT22;2869;50.432;8.680;2023-04-01T00:47:14;9.10;99.90
5689;DHT22;2869;50.432;8.680;2023-04-01T00:49:43;9.10;99.90
5689;DHT22;2869;50.432;8.680;2023-04-01T00:52:13;9.10;99.90
5689;DHT22;2869;50.432;8.680;2023-04-01T00:54:44;9.10;99.90
5689;DHT22;2869;50.432;8.680;2023-04-01T00:57:17;9.10;99.90
5689;DHT22;2869;50.432;8.680;2023-04-01T00:59:48;9.00;99.90
5689;DHT22;2869;50.432;8.680;2023-04-01T01:02:16;9.00;99.90
5689;DHT22;2869;50.432;8.680;2023-04-01T01:04:44;9.00;99.90
5689;DHT22;2869;50.432;8.680;2023-04-01T01:07:20;9.00;99.90
5689;DHT22;2869;50.432;8.680;2023-04-01T01:09:57;9.00;99.90
5689;DHT22;2869;50.432;8.680;2023-04-01T01:12:30;8.90;99.90
5689;DHT22;2869;50.432;8.680;2023-04-01T01:15:06;9.00;99.90
5689;DHT22;2869;50.432;8.680;2023-04-01T01:17:41;9.00;99.90
5689;DHT22;2869;50.432;8.680;2023-04-01T01:20:34;9.00;99.90
5689;DHT22;2869;50.432;8.680;2023-04-01T01:29:45;8.90;99.90
5689;DHT22;2869;50.432;8.680;2023-04-01T01:32:24;8.90;99.90
5689;DHT22;2869;50.432;8.680;2023-04-01T01:35:05;8.90;99.90
5689;DHT22;2869;50.432;8.680;2023-04-01T01:37:34;8.90;99.90
5689;DHT22;2869;50.432;8.680;2023-04-01T01:40:03;8.90;99.90
5689;DHT22;2869;50.432;8.680;2023-04-01T01:42:33;8.90;99.90
5689;DHT22;2869;50.432;8.680;2023-04-01T01:45:02;8.90;99.90
5689;DHT22;2869;50.432;8.680;2023-04-01T01:47:30;8.90;99.90
5689;DHT22;2869;50.432;8.680;2023-04-01T01:49:58;8.90;99.90
5689;DHT22;2869;50.432;8.680;2023-04-01T01:52:28;8.80;99.90
5689;DHT22;2869;50.432;8.680;2023-04-01T01:54:56;8.80;99.90
5689;DHT22;2869;50.432;8.680;2023-04-01T01:57:26;8.80;99.90
5689;DHT22;2869;50.432;8.680;2023-04-01T01:59:58;8.80;99.90
5689;DHT22;2869;50.432;8.680;2023-04-01T02:02:26;8.70;99.90
5689;DHT22;2869;50.432;8.680;2023-04-01T02:04:53;8.70;99.90
5689;DHT22;2869;50.432;8.680;2023-04-01T02:07:23;8.70;99.90
5689;DHT22;2869;50.432;8.680;2023-04-01T02:09:53;8.70;99.90
5689;DHT22;2869;50.432;8.680;2023-04-01T02:12:21;8.70;99.90
5689;DHT22;2869;50.432;8.680;2023-04-01T02:14:52;8.70;99.90
5689;DHT22;2869;50.432;8.680;2023-04-01T02:17:21;8.70;99.90
5689;DHT22;2869;50.432;8.680;2023-04-01T02:19:51;8.70;99.90
5689;DHT22;2869;50.432;8.680;2023-04-01T02:22:22;8.70;99.90
5689;DHT22;2869;50.432;8.680;2023-04-01T02:24:51;8.70;99.90
5689;DHT22;2869;50.432;8.680;2023-04-01T02:27:21;8.70;99.90
5689;DHT22;2869;50.432;8.680;2023-04-01T02:29:48;8.70;99.90
5689;DHT22;2869;50.432;8.680;2023-04-01T02:32:14;8.70;99.90
5689;DHT22;2869;50.432;8.680;2023-04-01T02:34:43;8.70;99.90
5689;DHT22;2869;50.432;8.680;2023-04-01T02:37:10;8.60;99.90
5689;DHT22;2869;50.432;8.680;2023-04-01T02:39:37;8.60;99.90
5689;DHT22;2869;50.432;8.680;2023-04-01T02:42:04;8.60;99.90
5689;DHT22;2869;50.432;8.680;2023-04-01T02:44:33;8.60;99.90
5689;DHT22;2869;50.432;8.680;2023-04-01T02:46:59;8.70;99.90
5689;DHT22;2869;50.432;8.680;2023-04-01T02:49:26;8.60;99.90
5689;DHT22;2869;50.432;8.680;2023-04-01T02:51:53;8.60;99.90
5689;DHT22;2869;50.432;8.680;2023-04-01T02:54:19;8.60;99.90
5689;DHT22;2869;50.432;8.680;2023-04-01T02:56:46;8.60;99.90
5689;DHT22;2869;50.432;8.680;2023-04-01T02:59:13;8.60;99.90
5689;DHT22;2869;50.432;8.680;2023-04-01T03:01:41;8.60;99.90
5689;DHT22;2869;50.432;8.680;2023-04-01T03:04:08;8.60;99.90
5689;DHT22;2869;50.432;8.680;2023-04-01T03:06:34;8.50;99.90
5689;DHT22;2869;50.432;8.680;2023-04-01T03:09:01;8.60;99.90
5689;DHT22;2869;50.432;8.680;2023-04-01T03:11:28;8.50;99.90
5689;DHT22;2869;50.432;8.680;2023-04-01T03:13:54;8.50;99.90
5689;DHT22;2869;50.432;8.680;2023-04-01T03:16:21;8.50;99.90
5689;DHT22;2869;50.432;8.680;2023-04-01T03:18:49;8.50;99.90
5689;DHT22;2869;50.432;8.680;2023-04-01T03:21:20;8.50;99.90
5689;DHT22;2869;50.432;8.680;2023-04-01T03:23:47;8.50;99.90
5689;DHT22;2869;50.432;8.680;2023-04-01T03:26:14;8.50;99.90
5689;DHT22;2869;50.432;8.680;2023-04-01T03:28:41;8.50;99.90
5689;DHT22;2869;50.432;8.680;2023-04-01T03:31:07;8.50;99.90
5689;DHT22;2869;50.432;8.680;2023-04-01T03:33:34;8.40;99.90
5689;DHT22;2869;50.432;8.680;2023-04-01T03:36:02;8.50;99.90
5689;DHT22;2869;50.432;8.680;2023-04-01T03:38:31;8.50;99.90
5689;DHT22;2869;50.432;8.680;2023-04-01T03:40:58;8.40;99.90
5689;DHT22;2869;50.432;8.680;2023-04-01T03:43:25;8.40;99.90
5689;DHT22;2869;50.432;8.680;2023-04-01T03:45:52;8.50;99.90
5689;DHT22;2869;50.432;8.680;2023-04-01T03:48:20;8.40;99.90
5689;DHT22;2869;50.432;8.680;2023-04-01T03:50:46;8.50;99.90
5689;DHT22;2869;50.432;8.680;2023-04-01T03:53:14;8.50;99.90
5689;DHT22;2869;50.432;8.680;2023-04-01T03:55:41;8.50;99.90
5689;DHT22;2869;50.432;8.680;2023-04-01T03:58:08;8.50;99.90
5689;DHT22;2869;50.432;8.680;2023-04-01T04:00:35;8.40;99.90
5689;DHT22;2869;50.432;8.680;2023-04-01T04:03:02;8.40;99.90
5689;DHT22;2869;50.432;8.680;2023-04-01T04:05:29;8.40;99.90
5689;DHT22;2869;50.432;8.680;2023-04-01T04:07:56;8.40;99.90
5689;DHT22;2869;50.432;8.680;2023-04-01T04:10:24;8.40;99.90
5689;DHT22;2869;50.432;8.680;2023-04-01T04:12:51;8.40;99.90
5689;DHT22;2869;50.432;8.680;2023-04-01T04:15:18;8.40;99.90
5689;DHT22;2869;50.432;8.680;2023-04-01T04:17:45;8.40;99.90
5689;DHT22;2869;50.432;8.680;2023-04-01T04:20:12;8.40;99.90
5689;DHT22;2869;50.432;8.680;2023-04-01T04:22:39;8.40;99.90
5689;DHT22;2869;50.432;8.680;2023-04-01T04:25:06;8.40;99.90
5689;DHT22;2869;50.432;8.680;2023-04-01T04:27:34;8.40;99.90
5689;DHT22;2869;50.432;8.680;2023-04-01T04:30:01;8.40;99.90
5689;DHT22;2869;50.432;8.680;2023-04-01T04:32:28;8.40;99.90
5689;DHT22;2869;50.432;8.680;2023-04-01T04:34:54;8.40;99.90
5689;DHT22;2869;50.432;8.680;2023-04-01T04:37:21;8.40;99.90
5689;DHT22;2869;50.432;8.680;2023-04-01T04:39:48;8.40;99.90
5689;DHT22;2869;50.432;8.680;2023-04-01T04:42:14;8.40;99.90
5689;DHT22;2869;50.432;8.680;2023-04-01T04:44:43;8.40;99.90
5689;DHT22;2869;50.432;8.680;2023-04-01T04:47:09;8.40;99.90
5689;DHT22;2869;50.432;8.680;2023-04-01T04:49:36;8.40;99.90
5689;DHT22;2869;50.432;8.680;2023-04-01T04:52:03;8.40;99.90
5689;DHT22;2869;50.432;8.680;2023-04-01T04:54:29;8.40;99.90
5689;DHT22;2869;50.432;8.680;2023-04-01T04:56:56;8.40;99.90
5689;DHT22;2869;50.432;8.680;2023-04-01T04:59:23;8.40;99.90
5689;DHT22;2869;50.432;8.680;2023-04-01T05:01:51;8.40;99.90
5689;DHT22;2869;50.432;8.680;2023-04-01T05:04:17;8.40;99.90
5689;DHT22;2869;50.432;8.680;2023-04-01T05:06:44;8.40;99.90
5689;DHT22;2869;50.432;8.680;2023-04-01T05:09:11;8.30;99.90
5689;DHT22;2869;50.432;8.680;2023-04-01T05:11:37;8.40;99.90
5689;DHT22;2869;50.432;8.680;2023-04-01T05:14:04;8.40;99.90
5689;DHT22;2869;50.432;8.680;2023-04-01T05:16:31;8.30;99.90
5689;DHT22;2869;50.432;8.680;2023-04-01T05:18:59;8.30;99.90
5689;DHT22;2869;50.432;8.680;2023-04-01T05:21:25;8.30;99.90
5689;DHT22;2869;50.432;8.680;2023-04-01T05:23:52;8.30;99.90
5689;DHT22;2869;50.432;8.680;2023-04-01T05:26:18;8.30;99.90
5689;DHT22;2869;50.432;8.680;2023-04-01T05:28:45;8.30;99.90
5689;DHT22;2869;50.432;8.680;2023-04-01T05:31:12;8.30;99.90
5689;DHT22;2869;50.432;8.680;2023-04-01T05:33:39;8.30;99.90
5689;DHT22;2869;50.432;8.680;2023-04-01T05:36:09;8.30;99.90
5689;DHT22;2869;50.432;8.680;2023-04-01T05:38:36;8.30;99.90
5689;DHT22;2869;50.432;8.680;2023-04-01T05:41:03;8.30;99.90
5689;DHT22;2869;50.432;8.680;2023-04-01T05:43:30;8.40;99.90
5689;DHT22;2869;50.432;8.680;2023-04-01T05:45:57;8.30;99.90
5689;DHT22;2869;50.432;8.680;2023-04-01T05:48:24;8.30;99.90
5689;DHT22;2869;50.432;8.680;2023-04-01T05:50:50;8.30;99.90
5689;DHT22;2869;50.432;8.680;2023-04-01T05:53:18;8.30;99.90
5689;DHT22;2869;50.432;8.680;2023-04-01T05:55:45;8.40;99.90
5689;DHT22;2869;50.432;8.680;2023-04-01T05:58:11;8.40;99.90
5689;DHT22;2869;50.432;8.680;2023-04-01T06:00:38;8.40;99.90
5689;DHT22;2869;50.432;8.680;2023-04-01T06:03:05;8.40;99.90
5689;DHT22;2869;50.432;8.680;2023-04-01T06:05:39;8.40;99.90
5689;DHT22;2869;50.432;8.680;2023-04-01T06:08:11;8.50;99.90
5689;DHT22;2869;50.432;8.680;2023-04-01T06:10:48;8.50;99.90
5689;DHT22;2869;50.432;8.680;2023-04-01T06:13:26;8.50;99.90
5689;DHT22;2869;50.432;8.680;2023-04-01T06:16:04;8.60;99.90
5689;DHT22;2869;50.432;8.680;2023-04-01T06:18:59;8.60;99.90
5689;DHT22;2869;50.432;8.680;2023-04-01T06:24:50;8.70;99.90
5689;DHT22;2869;50.432;8.680;2023-04-01T06:27:42;8.70;99.90
5689;DHT22;2869;50.432;8.680;2023-04-01T06:30:32;8.80;99.90
5689;DHT22;2869;50.432;8.680;2023-04-01T06:33:21;8.70;99.90
5689;DHT22;2869;50.432;8.680;2023-04-01T06:36:15;8.80;99.90
5689;DHT22;2869;50.432;8.680;2023-04-01T06:38:59;8.80;99.90
5689;DHT22;2869;50.432;8.680;2023-04-01T06:41:57;8.90;99.90
5689;DHT22;2869;50.432;8.680;2023-04-01T06:44:37;8.90;99.90
5689;DHT22;2869;50.432;8.680;2023-04-01T06:47:17;8.90;99.90
5689;DHT22;2869;50.432;8.680;2023-04-01T06:49:54;9.00;99.90
5689;DHT22;2869;50.432;8.680;2023-04-01T06:52:26;9.10;99.90
5689;DHT22;2869;50.432;8.680;2023-04-01T06:54:58;9.10;99.90
5689;DHT22;2869;50.432;8.680;2023-04-01T06:57:30;9.10;99.90
5689;DHT22;2869;50.432;8.680;2023-04-01T07:00:03;9.10;99.90
5689;DHT22;2869;50.432;8.680;2023-04-01T07:02:36;9.10;99.90
5689;DHT22;2869;50.432;8.680;2023-04-01T07:05:05;9.10;99.90
5689;DHT22;2869;50.432;8.680;2023-04-01T07:07:35;9.10;99.90
5689;DHT22;2869;50.432;8.680;2023-04-01T07:10:06;9.10;99.90
5689;DHT22;2869;50.432;8.680;2023-04-01T07:12:42;9.20;99.90
5689;DHT22;2869;50.432;8.680;2023-04-01T07:15:18;9.20;99.90
5689;DHT22;2869;50.432;8.680;2023-04-01T07:17:48;9.30;99.90
5689;DHT22;2869;50.432;8.680;2023-04-01T07:20:20;9.30;99.90
5689;DHT22;2869;50.432;8.680;2023-04-01T07:22:49;9.30;99.90
5689;DHT22;2869;50.432;8.680;2023-04-01T07:25:21;9.30;99.90
5689;DHT22;2869;50.432;8.680;2023-04-01T07:27:52;9.30;99.90
5689;DHT22;2869;50.432;8.680;2023-04-01T07:30:22;9.30;99.90
5689;DHT22;2869;50.432;8.680;2023-04-01T07:32:54;9.30;99.90
5689;DHT22;2869;50.432;8.680;2023-04-01T07:35:25;9.40;99.90
5689;DHT22;2869;50.432;8.680;2023-04-01T07:38:06;9.50;99.90
5689;DHT22;2869;50.432;8.680;2023-04-01T07:40:40;9.60;99.90
5689;DHT22;2869;50.432;8.680;2023-04-01T07:43:36;9.80;99.90
5689;DHT22;2869;50.432;8.680;2023-04-01T07:46:13;10.00;99.90
5689;DHT22;2869;50.432;8.680;2023-04-01T07:48:46;10.20;99.90
5689;DHT22;2869;50.432;8.680;2023-04-01T07:51:17;10.50;99.90
5689;DHT22;2869;50.432;8.680;2023-04-01T07:53:49;10.60;99.90
5689;DHT22;2869;50.432;8.680;2023-04-01T07:56:22;10.80;99.90
5689;DHT22;2869;50.432;8.680;2023-04-01T07:58:59;10.70;99.90
5689;DHT22;2869;50.432;8.680;2023-04-01T08:01:36;10.80;99.90
5689;DHT22;2869;50.432;8.680;2023-04-01T08:04:19;10.60;99.90
5689;DHT22;2869;50.432;8.680;2023-04-01T08:06:54;10.70;99.90
5689;DHT22;2869;50.432;8.680;2023-04-01T08:09:31;10.60;99.90
5689;DHT22;2869;50.432;8.680;2023-04-01T08:12:12;10.60;99.90
5689;DHT22;2869;50.432;8.680;2023-04-01T08:14:50;10.40;99.90
5689;DHT22;2869;50.432;8.680;2023-04-01T08:17:25;10.40;99.90
5689;DHT22;2869;50.432;8.680;2023-04-01T08:20:05;10.40;99.90
5689;DHT22;2869;50.432;8.680;2023-04-01T08:22:39;10.50;99.90
5689;DHT22;2869;50.432;8.680;2023-04-01T08:25:13;10.50;99.90
5689;DHT22;2869;50.432;8.680;2023-04-01T08:27:45;10.50;99.90
5689;DHT22;2869;50.432;8.680;2023-04-01T08:30:18;10.50;99.90
5689;DHT22;2869;50.432;8.680;2023-04-01T08:32:50;10.50;99.90
5689;DHT22;2869;50.432;8.680;2023-04-01T08:35:26;10.50;99.90
5689;DHT22;2869;50.432;8.680;2023-04-01T08:37:55;10.50;99.90
5689;DHT22;2869;50.432;8.680;2023-04-01T08:47:04;10.40;99.90
5689;DHT22;2869;50.432;8.680;2023-04-01T08:52:37;10.50;99.90
5689;DHT22;2869;50.432;8.680;2023-04-01T08:55:25;10.50;99.90
5689;DHT22;2869;50.432;8.680;2023-04-01T08:58:07;10.50;99.90
5689;DHT22;2869;50.432;8.680;2023-04-01T09:00:42;10.60;99.90
5689;DHT22;2869;50.432;8.680;2023-04-01T09:03:35;10.60;99.90
5689;DHT22;2869;50.432;8.680;2023-04-01T09:06:26;10.70;99.90
5689;DHT22;2869;50.432;8.680;2023-04-01T09:09:09;10.60;99.90
5689;DHT22;2869;50.432;8.680;2023-04-01T09:11:51;10.70;99.90
5689;DHT22;2869;50.432;8.680;2023-04-01T09:14:31;10.70;99.90
5689;DHT22;2869;50.432;8.680;2023-04-01T09:17:34;10.80;99.90
5689;DHT22;2869;50.432;8.680;2023-04-01T09:20:20;10.70;99.90
5689;DHT22;2869;50.432;8.680;2023-04-01T09:23:18;10.70;99.90
5689;DHT22;2869;50.432;8.680;2023-04-01T09:26:00;10.80;99.90
5689;DHT22;2869;50.432;8.680;2023-04-01T09:28:37;10.80;99.90
5689;DHT22;2869;50.432;8.680;2023-04-01T09:31:26;10.90;99.90
5689;DHT22;2869;50.432;8.680;2023-04-01T09:34:25;10.90;99.90
5689;DHT22;2869;50.432;8.680;2023-04-01T09:37:06;11.00;99.90
5689;DHT22;2869;50.432;8.680;2023-04-01T09:39:37;11.10;99.90
5689;DHT22;2869;50.432;8.680;2023-04-01T09:42:24;11.30;99.90
5689;DHT22;2869;50.432;8.680;2023-04-01T09:44:58;11.40;99.90
5689;DHT22;2869;50.432;8.680;2023-04-01T09:47:52;11.50;99.90
5689;DHT22;2869;50.432;8.680;2023-04-01T09:50:31;11.30;99.90
5689;DHT22;2869;50.432;8.680;2023-04-01T09:53:07;11.20;99.90
5689;DHT22;2869;50.432;8.680;2023-04-01T09:56:14;11.10;99.90
5689;DHT22;2869;50.432;8.680;2023-04-01T09:59:15;11.20;99.90
5689;DHT22;2869;50.432;8.680;2023-04-01T10:02:03;11.20;99.90
5689;DHT22;2869;50.432;8.680;2023-04-01T10:05:00;11.30;99.90
5689;DHT22;2869;50.432;8.680;2023-04-01T10:08:02;11.20;99.90
5689;DHT22;2869;50.432;8.680;2023-04-01T10:16:51;11.20;99.90
5689;DHT22;2869;50.432;8.680;2023-04-01T10:26:06;10.80;99.90
5689;DHT22;2869;50.432;8.680;2023-04-01T10:28:56;10.80;99.90
5689;DHT22;2869;50.432;8.680;2023-04-01T10:31:41;10.80;99.90
5689;DHT22;2869;50.432;8.680;2023-04-01T10:34:33;10.90;99.90
5689;DHT22;2869;50.432;8.680;2023-04-01T10:37:21;10.90;99.90
5689;DHT22;2869;50.432;8.680;2023-04-01T10:40:13;10.90;99.90
5689;DHT22;2869;50.432;8.680;2023-04-01T10:43:13;11.00;99.90
5689;DHT22;2869;50.432;8.680;2023-04-01T10:49:16;11.00;99.90
5689;DHT22;2869;50.432;8.680;2023-04-01T10:55:19;11.10;99.90
5689;DHT22;2869;50.432;8.680;2023-04-01T10:58:18;11.10;99.90
5689;DHT22;2869;50.432;8.680;2023-04-01T11:01:15;11.20;99.90
5689;DHT22;2869;50.432;8.680;2023-04-01T11:04:02;11.20;99.90
5689;DHT22;2869;50.432;8.680;2023-04-01T11:10:18;11.30;99.90
5689;DHT22;2869;50.432;8.680;2023-04-01T11:13:21;11.20;99.90
5689;DHT22;2869;50.432;8.680;2023-04-01T11:19:20;11.10;99.90
5689;DHT22;2869;50.432;8.680;2023-04-01T11:22:09;11.20;99.90
5689;DHT22;2869;50.432;8.680;2023-04-01T11:25:06;11.20;99.90
5689;DHT22;2869;50.432;8.680;2023-04-01T11:28:04;11.20;99.90
5689;DHT22;2869;50.432;8.680;2023-04-01T11:31:00;11.10;99.90
5689;DHT22;2869;50.432;8.680;2023-04-01T11:33:33;11.20;99.90
5689;DHT22;2869;50.432;8.680;2023-04-01T11:36:20;11.30;99.90
5689;DHT22;2869;50.432;8.680;2023-04-01T11:39:02;11.30;99.90
5689;DHT22;2869;50.432;8.680;2023-04-01T11:41:40;11.50;99.90
5689;DHT22;2869;50.432;8.680;2023-04-01T11:44:16;11.60;99.90
5689;DHT22;2869;50.432;8.680;2023-04-01T11:46:56;11.50;99.90
5689;DHT22;2869;50.432;8.680;2023-04-01T11:49:36;11.70;99.90
5689;DHT22;2869;50.432;8.680;2023-04-01T11:52:21;12.10;99.90
5689;DHT22;2869;50.432;8.680;2023-04-01T11:55:02;12.30;99.90
5689;DHT22;2869;50.432;8.680;2023-04-01T12:01:23;12.50;99.90
5689;DHT22;2869;50.432;8.680;2023-04-01T12:04:04;12.60;99.90
5689;DHT22;2869;50.432;8.680;2023-04-01T12:06:44;12.60;99.90
5689;DHT22;2869;50.432;8.680;2023-04-01T12:09:21;12.60;99.90
5689;DHT22;2869;50.432;8.680;2023-04-01T12:11:57;12.60;99.90
5689;DHT22;2869;50.432;8.680;2023-04-01T12:14:34;12.40;99.90
5689;DHT22;2869;50.432;8.680;2023-04-01T12:17:08;12.30;99.90
5689;DHT22;2869;50.432;8.680;2023-04-01T12:19:42;12.30;99.90
5689;DHT22;2869;50.432;8.680;2023-04-01T12:22:28;12.30;99.90
5689;DHT22;2869;50.432;8.680;2023-04-01T12:25:06;12.20;99.90
5689;DHT22;2869;50.432;8.680;2023-04-01T12:27:45;12.10;99.90
5689;DHT22;2869;50.432;8.680;2023-04-01T12:30:30;11.90;99.90
5689;DHT22;2869;50.432;8.680;2023-04-01T12:33:10;11.80;99.90
5689;DHT22;2869;50.432;8.680;2023-04-01T12:35:51;11.80;99.90
5689;DHT22;2869;50.432;8.680;2023-04-01T12:38:29;11.90;99.90
5689;DHT22;2869;50.432;8.680;2023-04-01T12:41:09;12.00;99.90
5689;DHT22;2869;50.432;8.680;2023-04-01T12:46:57;12.00;99.90
5689;DHT22;2869;50.432;8.680;2023-04-01T12:52:37;11.90;99.90
5689;DHT22;2869;50.432;8.680;2023-04-01T12:55:19;12.00;99.90
5689;DHT22;2869;50.432;8.680;2023-04-01T12:58:23;12.20;99.90
5689;DHT22;2869;50.432;8.680;2023-04-01T13:03:58;12.50;99.90
5689;DHT22;2869;50.432;8.680;2023-04-01T13:06:41;12.50;99.90
5689;DHT22;2869;50.432;8.680;2023-04-01T13:09:24;12.30;99.90
5689;DHT22;2869;50.432;8.680;2023-04-01T13:12:10;12.40;99.90
5689;DHT22;2869;50.432;8.680;2023-04-01T13:15:04;12.50;99.90
5689;DHT22;2869;50.432;8.680;2023-04-01T13:17:38;12.50;99.90
5689;DHT22;2869;50.432;8.680;2023-04-01T13:20:16;12.60;99.90
5689;DHT22;2869;50.432;8.680;2023-04-01T13:22:57;12.60;99.90
5689;DHT22;2869;50.432;8.680;2023-04-01T13:25:36;12.70;99.90
5689;DHT22;2869;50.432;8.680;2023-04-01T13:28:12;12.80;99.90
5689;DHT22;2869;50.432;8.680;2023-04-01T13:30:49;12.90;99.90
5689;DHT22;2869;50.432;8.680;2023-04-01T13:33:27;13.00;99.90
5689;DHT22;2869;50.432;8.680;2023-04-01T13:36:08;13.00;99.90
5689;DHT22;2869;50.432;8.680;2023-04-01T13:38:52;12.90;99.90
5689;DHT22;2869;50.432;8.680;2023-04-01T13:41:33;12.80;99.90
5689;DHT22;2869;50.432;8.680;2023-04-01T13:44:07;12.80;99.90
5689;DHT22;2869;50.432;8.680;2023-04-01T13:46:54;12.70;99.90
5689;DHT22;2869;50.432;8.680;2023-04-01T13:52:41;12.70;99.90
5689;DHT22;2869;50.432;8.680;2023-04-01T13:55:23;12.70;99.90
5689;DHT22;2869;50.432;8.680;2023-04-01T13:58:07;12.60;99.90
5689;DHT22;2869;50.432;8.680;2023-04-01T14:00:54;12.60;99.90
5689;DHT22;2869;50.432;8.680;2023-04-01T14:03:40;12.60;99.90
5689;DHT22;2869;50.432;8.680;2023-04-01T14:06:19;12.60;99.90
5689;DHT22;2869;50.432;8.680;2023-04-01T14:09:04;12.60;99.90
5689;DHT22;2869;50.432;8.680;2023-04-01T14:11:41;12.50;99.90
5689;DHT22;2869;50.432;8.680;2023-04-01T14:14:20;12.50;99.90
5689;DHT22;2869;50.432;8.680;2023-04-01T14:17:02;12.50;99.90
5689;DHT22;2869;50.432;8.680;2023-04-01T14:19:50;12.50;99.90
5689;DHT22;2869;50.432;8.680;2023-04-01T14:22:25;12.60;99.90
5689;DHT22;2869;50.432;8.680;2023-04-01T14:25:16;12.60;99.90
5689;DHT22;2869;50.432;8.680;2023-04-01T14:27:54;12.70;99.90
5689;DHT22;2869;50.432;8.680;2023-04-01T14:33:26;13.10;99.90
5689;DHT22;2869;50.432;8.680;2023-04-01T14:36:14;13.20;99.90
5689;DHT22;2869;50.432;8.680;2023-04-01T14:38:48;13.20;99.90
5689;DHT22;2869;50.432;8.680;2023-04-01T14:41:26;13.30;99.90
5689;DHT22;2869;50.432;8.680;2023-04-01T14:44:10;13.50;99.90
5689;DHT22;2869;50.432;8.680;2023-04-01T14:49:52;13.80;99.90
5689;DHT22;2869;50.432;8.680;2023-04-01T14:52:26;14.00;99.90
5689;DHT22;2869;50.432;8.680;2023-04-01T14:54:54;14.00;99.90
5689;DHT22;2869;50.432;8.680;2023-04-01T14:57:24;14.00;99.90
5689;DHT22;2869;50.432;8.680;2023-04-01T14:59:54;14.10;99.90
5689;DHT22;2869;50.432;8.680;2023-04-01T15:02:45;14.30;99.90
5689;DHT22;2869;50.432;8.680;2023-04-01T15:05:27;14.30;99.90
5689;DHT22;2869;50.432;8.680;2023-04-01T15:08:05;14.20;99.90
5689;DHT22;2869;50.432;8.680;2023-04-01T15:13:47;13.70;99.90
5689;DHT22;2869;50.432;8.680;2023-04-01T15:16:23;13.40;99.90
5689;DHT22;2869;50.432;8.680;2023-04-01T15:18:59;13.00;99.90
5689;DHT22;2869;50.432;8.680;2023-04-01T15:21:44;12.70;99.90
5689;DHT22;2869;50.432;8.680;2023-04-01T15:24:21;12.50;99.90
5689;DHT22;2869;50.432;8.680;2023-04-01T15:27:06;12.40;99.90
5689;DHT22;2869;50.432;8.680;2023-04-01T15:32:46;11.90;99.90
5689;DHT22;2869;50.432;8.680;2023-04-01T15:35:21;11.80;99.90
5689;DHT22;2869;50.432;8.680;2023-04-01T15:37:55;11.80;99.90
5689;DHT22;2869;50.432;8.680;2023-04-01T15:40:29;11.80;99.90
5689;DHT22;2869;50.432;8.680;2023-04-01T15:43:11;11.80;99.90
5689;DHT22;2869;50.432;8.680;2023-04-01T15:45:48;11.70;99.90
5689;DHT22;2869;50.432;8.680;2023-04-01T15:48:27;11.70;99.90
5689;DHT22;2869;50.432;8.680;2023-04-01T15:51:02;11.60;99.90
5689;DHT22;2869;50.432;8.680;2023-04-01T15:53:44;11.60;99.90
5689;DHT22;2869;50.432;8.680;2023-04-01T15:56:23;11.50;99.90
5689;DHT22;2869;50.432;8.680;2023-04-01T15:59:01;11.50;99.90
5689;DHT22;2869;50.432;8.680;2023-04-01T16:01:38;11.40;99.90
5689;DHT22;2869;50.432;8.680;2023-04-01T16:04:22;11.30;99.90
5689;DHT22;2869;50.432;8.680;2023-04-01T16:07:02;11.30;99.90
5689;DHT22;2869;50.432;8.680;2023-04-01T16:09:59;11.30;99.90
5689;DHT22;2869;50.432;8.680;2023-04-01T16:12:42;11.20;99.90
5689;DHT22;2869;50.432;8.680;2023-04-01T16:15:21;11.10;99.90
5689;DHT22;2869;50.432;8.680;2023-04-01T16:18:10;11.10;99.90
5689;DHT22;2869;50.432;8.680;2023-04-01T16:20:46;11.10;99.90
5689;DHT22;2869;50.432;8.680;2023-04-01T16:23:20;11.10;99.90
5689;DHT22;2869;50.432;8.680;2023-04-01T16:25:54;11.10;99.90
5689;DHT22;2869;50.432;8.680;2023-04-01T16:28:30;11.20;99.90
5689;DHT22;2869;50.432;8.680;2023-04-01T16:30:59;11.20;99.90
5689;DHT22;2869;50.432;8.680;2023-04-01T16:33:38;11.30;99.90
5689;DHT22;2869;50.432;8.680;2023-04-01T16:36:10;11.30;99.90
5689;DHT22;2869;50.432;8.680;2023-04-01T16:38:43;11.40;99.90
5689;DHT22;2869;50.432;8.680;2023-04-01T16:41:17;11.50;99.90
5689;DHT22;2869;50.432;8.680;2023-04-01T16:43:48;11.50;99.90
5689;DHT22;2869;50.432;8.680;2023-04-01T16:46:30;11.50;99.90
5689;DHT22;2869;50.432;8.680;2023-04-01T16:49:00;11.60;99.90
5689;DHT22;2869;50.432;8.680;2023-04-01T16:51:41;11.60;99.90
5689;DHT22;2869;50.432;8.680;2023-04-01T16:54:15;11.50;99.90
5689;DHT22;2869;50.432;8.680;2023-04-01T16:56:46;11.50;99.90
5689;DHT22;2869;50.432;8.680;2023-04-01T16:59:21;11.50;99.90
5689;DHT22;2869;50.432;8.680;2023-04-01T17:01:52;11.50;99.90
5689;DHT22;2869;50.432;8.680;2023-04-01T17:04:26;11.50;99.90
5689;DHT22;2869;50.432;8.680;2023-04-01T17:07:04;11.40;99.90
5689;DHT22;2869;50.432;8.680;2023-04-01T17:09:44;11.40;99.90
5689;DHT22;2869;50.432;8.680;2023-04-01T17:12:17;11.40;99.90
5689;DHT22;2869;50.432;8.680;2023-04-01T17:14:52;11.40;99.90
5689;DHT22;2869;50.432;8.680;2023-04-01T17:17:29;11.30;99.90
5689;DHT22;2869;50.432;8.680;2023-04-01T17:20:14;11.30;99.90
5689;DHT22;2869;50.432;8.680;2023-04-01T17:22:52;11.30;99.90
5689;DHT22;2869;50.432;8.680;2023-04-01T17:25:38;11.30;99.90
5689;DHT22;2869;50.432;8.680;2023-04-01T17:28:21;11.30;99.90
5689;DHT22;2869;50.432;8.680;2023-04-01T17:30:59;11.30;99.90
5689;DHT22;2869;50.432;8.680;2023-04-01T17:33:45;11.30;99.90
5689;DHT22;2869;50.432;8.680;2023-04-01T17:36:32;11.20;99.90
5689;DHT22;2869;50.432;8.680;2023-04-01T17:39:18;11.20;99.90
5689;DHT22;2869;50.432;8.680;2023-04-01T17:41:51;11.10;99.90
5689;DHT22;2869;50.432;8.680;2023-04-01T17:44:28;11.10;99.90
5689;DHT22;2869;50.432;8.680;2023-04-01T17:47:15;11.00;99.90
5689;DHT22;2869;50.432;8.680;2023-04-01T17:49:50;11.00;99.90
5689;DHT22;2869;50.432;8.680;2023-04-01T17:52:24;11.00;99.90
5689;DHT22;2869;50.432;8.680;2023-04-01T17:54:59;11.00;99.90
5689;DHT22;2869;50.432;8.680;2023-04-01T17:57:39;10.90;99.90
5689;DHT22;2869;50.432;8.680;2023-04-01T18:00:19;10.80;99.90
5689;DHT22;2869;50.432;8.680;2023-04-01T18:03:00;10.80;99.90
5689;DHT22;2869;50.432;8.680;2023-04-01T18:05:45;10.80;99.90
5689;DHT22;2869;50.432;8.680;2023-04-01T18:08:30;10.70;99.90
5689;DHT22;2869;50.432;8.680;2023-04-01T18:11:11;10.70;99.90
5689;DHT22;2869;50.432;8.680;2023-04-01T18:14:02;10.70;99.90
5689;DHT22;2869;50.432;8.680;2023-04-01T18:16:54;10.70;99.90
5689;DHT22;2869;50.432;8.680;2023-04-01T18:19:30;10.60;99.90